8.13C
пасмурно
пасмурно
Дата и времяТемператураДавление, мм рт.ст.Влажность, %Осадки
МинимумМаксимум
16.08.2022 23:007.6C9.43C76370небольшой дождь
17.08.2022 02:004.89C6.71C76479облачно с прояснениями
17.08.2022 05:003.94C3.94C76586облачно с прояснениями
17.08.2022 08:009.38C9.38C76554переменная облачность
17.08.2022 11:0011.81C11.81C76545переменная облачность
17.08.2022 14:0012.69C12.69C76644пасмурно
17.08.2022 17:0011.97C11.97C76650пасмурно
17.08.2022 20:0010.21C10.21C76757облачно с прояснениями
17.08.2022 23:006.8C6.8C76867переменная облачность
18.08.2022 02:006.5C6.5C76868облачно с прояснениями
18.08.2022 05:004.63C4.63C76976облачно с прояснениями
18.08.2022 08:009.34C9.34C76958облачно с прояснениями
18.08.2022 11:0012.57C12.57C76947пасмурно
18.08.2022 14:0015.13C15.13C76938пасмурно
18.08.2022 17:0016.72C16.72C76834пасмурно
18.08.2022 20:0014.25C14.25C76845пасмурно
18.08.2022 23:0012.77C12.77C76849пасмурно
19.08.2022 02:0010.19C10.19C76759пасмурно
19.08.2022 05:009.43C9.43C76665пасмурно
19.08.2022 08:0014.39C14.39C76556облачно с прояснениями
19.08.2022 11:0018.77C18.77C76552облачно с прояснениями
19.08.2022 14:0024.15C24.15C76349облачно с прояснениями
19.08.2022 17:0022.09C22.09C76360небольшой дождь
19.08.2022 20:0016.78C16.78C76295небольшой дождь
19.08.2022 23:0016.22C16.22C76196небольшой дождь
20.08.2022 02:0016.32C16.32C75992небольшой дождь
20.08.2022 05:0011.18C11.18C76090облачно с прояснениями
20.08.2022 08:0012.31C12.31C76278пасмурно
20.08.2022 11:0014.62C14.62C76366пасмурно
20.08.2022 14:0015.96C15.96C76455пасмурно
20.08.2022 17:0015.36C15.36C76549пасмурно
20.08.2022 20:0011.66C11.66C76756переменная облачность
20.08.2022 23:007.6C7.6C76861переменная облачность
21.08.2022 02:006.07C6.07C76870облачно с прояснениями
21.08.2022 05:005.26C5.26C77075облачно с прояснениями
21.08.2022 08:0010.16C10.16C77156переменная облачность
21.08.2022 11:0013.91C13.91C77143небольшая облачность
21.08.2022 14:0015.96C15.96C77136ясно
21.08.2022 17:0016.67C16.67C77135ясно
21.08.2022 20:0011.71C11.71C77154переменная облачность
Дата и время наблюдения: 16.08.2022 20:55:01